sensor_id;sensor_type;location;lat;lon;timestamp;temperature;humidity
56268;DHT22;42175;46.930;9.532;2022-12-10T00:01:14;23.50;38.30
56268;DHT22;42175;46.930;9.532;2022-12-10T00:03:41;23.50;38.30
56268;DHT22;42175;46.930;9.532;2022-12-10T00:06:10;23.50;38.30
56268;DHT22;42175;46.930;9.532;2022-12-10T00:08:36;23.50;38.30
56268;DHT22;42175;46.930;9.532;2022-12-10T00:11:04;23.50;38.30
56268;DHT22;42175;46.930;9.532;2022-12-10T00:13:32;23.50;38.30
56268;DHT22;42175;46.930;9.532;2022-12-10T00:16:02;23.50;38.30
56268;DHT22;42175;46.930;9.532;2022-12-10T00:18:29;23.50;38.30
56268;DHT22;42175;46.930;9.532;2022-12-10T00:20:54;23.40;38.20
56268;DHT22;42175;46.930;9.532;2022-12-10T00:23:20;23.40;38.20
56268;DHT22;42175;46.930;9.532;2022-12-10T00:25:46;23.40;38.20
56268;DHT22;42175;46.930;9.532;2022-12-10T00:28:12;23.40;38.20
56268;DHT22;42175;46.930;9.532;2022-12-10T00:30:38;23.40;38.30
56268;DHT22;42175;46.930;9.532;2022-12-10T00:33:04;23.40;38.30
56268;DHT22;42175;46.930;9.532;2022-12-10T00:35:29;23.40;38.20
56268;DHT22;42175;46.930;9.532;2022-12-10T00:37:55;23.40;38.30
56268;DHT22;42175;46.930;9.532;2022-12-10T00:40:21;23.40;38.20
56268;DHT22;42175;46.930;9.532;2022-12-10T00:42:47;23.40;38.20
56268;DHT22;42175;46.930;9.532;2022-12-10T00:45:13;23.40;38.30
56268;DHT22;42175;46.930;9.532;2022-12-10T00:47:39;23.40;38.30
56268;DHT22;42175;46.930;9.532;2022-12-10T00:50:05;23.30;38.20
56268;DHT22;42175;46.930;9.532;2022-12-10T00:52:30;23.40;38.30
56268;DHT22;42175;46.930;9.532;2022-12-10T00:54:56;23.40;38.30
56268;DHT22;42175;46.930;9.532;2022-12-10T00:57:22;23.40;38.20
56268;DHT22;42175;46.930;9.532;2022-12-10T00:59:47;23.40;38.20
56268;DHT22;42175;46.930;9.532;2022-12-10T01:02:13;23.40;38.30
56268;DHT22;42175;46.930;9.532;2022-12-10T01:04:39;23.30;38.20
56268;DHT22;42175;46.930;9.532;2022-12-10T01:07:04;23.30;38.20
56268;DHT22;42175;46.930;9.532;2022-12-10T01:09:30;23.40;38.20
56268;DHT22;42175;46.930;9.532;2022-12-10T01:11:59;23.30;38.20
56268;DHT22;42175;46.930;9.532;2022-12-10T01:14:31;23.40;38.30
56268;DHT22;42175;46.930;9.532;2022-12-10T01:16:59;23.30;38.20
56268;DHT22;42175;46.930;9.532;2022-12-10T01:19:25;23.30;38.30
56268;DHT22;42175;46.930;9.532;2022-12-10T01:21:55;23.30;38.30
56268;DHT22;42175;46.930;9.532;2022-12-10T01:24:26;23.30;38.30
56268;DHT22;42175;46.930;9.532;2022-12-10T01:26:52;23.30;38.30
56268;DHT22;42175;46.930;9.532;2022-12-10T01:29:18;23.30;38.40
56268;DHT22;42175;46.930;9.532;2022-12-10T01:31:44;23.30;38.40
56268;DHT22;42175;46.930;9.532;2022-12-10T01:34:12;23.30;38.40
56268;DHT22;42175;46.930;9.532;2022-12-10T01:36:47;23.30;38.40
56268;DHT22;42175;46.930;9.532;2022-12-10T01:39:16;23.30;38.40
56268;DHT22;42175;46.930;9.532;2022-12-10T01:41:44;23.20;38.40
56268;DHT22;42175;46.930;9.532;2022-12-10T01:46:44;23.30;38.40
56268;DHT22;42175;46.930;9.532;2022-12-10T01:51:43;23.20;38.50
56268;DHT22;42175;46.930;9.532;2022-12-10T01:54:13;23.20;38.40
56268;DHT22;42175;46.930;9.532;2022-12-10T01:56:43;23.20;38.40
56268;DHT22;42175;46.930;9.532;2022-12-10T01:59:11;23.20;38.40
56268;DHT22;42175;46.930;9.532;2022-12-10T02:01:45;23.30;38.50
56268;DHT22;42175;46.930;9.532;2022-12-10T02:09:52;23.20;38.50
56268;DHT22;42175;46.930;9.532;2022-12-10T02:12:47;23.20;38.60
56268;DHT22;42175;46.930;9.532;2022-12-10T02:15:22;23.20;38.60
56268;DHT22;42175;46.930;9.532;2022-12-10T02:17:58;23.20;38.60
56268;DHT22;42175;46.930;9.532;2022-12-10T02:20:34;23.20;38.60
56268;DHT22;42175;46.930;9.532;2022-12-10T02:23:05;23.20;38.60
56268;DHT22;42175;46.930;9.532;2022-12-10T02:28:41;23.20;38.60
56268;DHT22;42175;46.930;9.532;2022-12-10T02:31:12;23.20;38.60
56268;DHT22;42175;46.930;9.532;2022-12-10T02:33:44;23.20;38.60
56268;DHT22;42175;46.930;9.532;2022-12-10T02:36:12;23.20;38.60
56268;DHT22;42175;46.930;9.532;2022-12-10T02:38:40;23.20;38.60
56268;DHT22;42175;46.930;9.532;2022-12-10T02:41:15;23.20;38.50
56268;DHT22;42175;46.930;9.532;2022-12-10T02:43:46;23.20;38.60
56268;DHT22;42175;46.930;9.532;2022-12-10T02:46:13;23.20;38.60
56268;DHT22;42175;46.930;9.532;2022-12-10T02:48:40;23.20;38.50
56268;DHT22;42175;46.930;9.532;2022-12-10T02:51:06;23.20;38.50
56268;DHT22;42175;46.930;9.532;2022-12-10T02:53:32;23.20;38.50
56268;DHT22;42175;46.930;9.532;2022-12-10T02:59:08;23.10;38.50
56268;DHT22;42175;46.930;9.532;2022-12-10T03:04:33;23.10;38.50
56268;DHT22;42175;46.930;9.532;2022-12-10T03:07:16;23.10;38.50
56268;DHT22;42175;46.930;9.532;2022-12-10T03:09:52;23.10;38.50
56268;DHT22;42175;46.930;9.532;2022-12-10T03:12:27;23.10;38.50
56268;DHT22;42175;46.930;9.532;2022-12-10T03:14:58;23.10;38.60
56268;DHT22;42175;46.930;9.532;2022-12-10T03:17:27;23.10;38.50
56268;DHT22;42175;46.930;9.532;2022-12-10T03:19:55;23.10;38.50
56268;DHT22;42175;46.930;9.532;2022-12-10T03:22:23;23.10;38.50
56268;DHT22;42175;46.930;9.532;2022-12-10T03:24:49;23.10;38.60
56268;DHT22;42175;46.930;9.532;2022-12-10T03:27:16;23.10;38.60
56268;DHT22;42175;46.930;9.532;2022-12-10T03:29:48;23.10;38.60
56268;DHT22;42175;46.930;9.532;2022-12-10T03:32:16;23.10;38.60
56268;DHT22;42175;46.930;9.532;2022-12-10T03:34:44;23.10;38.60
56268;DHT22;42175;46.930;9.532;2022-12-10T03:37:11;23.10;38.60
56268;DHT22;42175;46.930;9.532;2022-12-10T03:39:37;23.10;38.60
56268;DHT22;42175;46.930;9.532;2022-12-10T03:42:05;23.10;38.60
56268;DHT22;42175;46.930;9.532;2022-12-10T03:44:33;23.10;38.60
56268;DHT22;42175;46.930;9.532;2022-12-10T03:47:00;23.10;38.50
56268;DHT22;42175;46.930;9.532;2022-12-10T03:49:26;23.10;38.60
56268;DHT22;42175;46.930;9.532;2022-12-10T03:51:52;23.10;38.50
56268;DHT22;42175;46.930;9.532;2022-12-10T03:54:18;23.10;38.50
56268;DHT22;42175;46.930;9.532;2022-12-10T03:56:44;23.10;38.60
56268;DHT22;42175;46.930;9.532;2022-12-10T03:59:10;23.10;38.60
56268;DHT22;42175;46.930;9.532;2022-12-10T04:01:35;23.10;38.60
56268;DHT22;42175;46.930;9.532;2022-12-10T04:04:03;23.10;38.60
56268;DHT22;42175;46.930;9.532;2022-12-10T04:06:29;23.10;38.50
56268;DHT22;42175;46.930;9.532;2022-12-10T04:08:54;23.10;38.60
56268;DHT22;42175;46.930;9.532;2022-12-10T04:11:20;23.10;38.60
56268;DHT22;42175;46.930;9.532;2022-12-10T04:13:46;23.10;38.60
56268;DHT22;42175;46.930;9.532;2022-12-10T04:16:32;23.10;38.60
56268;DHT22;42175;46.930;9.532;2022-12-10T04:19:09;23.10;38.50
56268;DHT22;42175;46.930;9.532;2022-12-10T04:21:37;23.10;38.50
56268;DHT22;42175;46.930;9.532;2022-12-10T04:24:24;23.00;38.50
56268;DHT22;42175;46.930;9.532;2022-12-10T04:27:29;23.10;38.60
56268;DHT22;42175;46.930;9.532;2022-12-10T04:29:56;23.10;38.60
56268;DHT22;42175;46.930;9.532;2022-12-10T04:32:23;23.10;38.50
56268;DHT22;42175;46.930;9.532;2022-12-10T04:34:49;23.10;38.60
56268;DHT22;42175;46.930;9.532;2022-12-10T04:37:17;23.10;38.60
56268;DHT22;42175;46.930;9.532;2022-12-10T04:39:43;23.10;38.60
56268;DHT22;42175;46.930;9.532;2022-12-10T04:42:10;23.10;38.50
56268;DHT22;42175;46.930;9.532;2022-12-10T04:44:36;23.10;38.60
56268;DHT22;42175;46.930;9.532;2022-12-10T04:47:04;23.10;38.70
56268;DHT22;42175;46.930;9.532;2022-12-10T04:49:30;23.10;38.70
56268;DHT22;42175;46.930;9.532;2022-12-10T04:51:56;23.10;38.60
56268;DHT22;42175;46.930;9.532;2022-12-10T04:54:22;23.10;38.70
56268;DHT22;42175;46.930;9.532;2022-12-10T04:56:47;23.10;38.60
56268;DHT22;42175;46.930;9.532;2022-12-10T04:59:13;23.10;38.60
56268;DHT22;42175;46.930;9.532;2022-12-10T05:01:39;23.10;38.50
56268;DHT22;42175;46.930;9.532;2022-12-10T05:04:07;23.10;38.60
56268;DHT22;42175;46.930;9.532;2022-12-10T05:06:33;23.10;38.60
56268;DHT22;42175;46.930;9.532;2022-12-10T05:09:00;23.10;38.60
56268;DHT22;42175;46.930;9.532;2022-12-10T05:11:28;23.10;39.20
56268;DHT22;42175;46.930;9.532;2022-12-10T05:13:55;23.10;38.60
56268;DHT22;42175;46.930;9.532;2022-12-10T05:16:22;23.10;38.70
56268;DHT22;42175;46.930;9.532;2022-12-10T05:18:48;23.10;38.60
56268;DHT22;42175;46.930;9.532;2022-12-10T05:21:17;23.10;38.60
56268;DHT22;42175;46.930;9.532;2022-12-10T05:23:46;23.10;38.60
56268;DHT22;42175;46.930;9.532;2022-12-10T05:26:15;23.10;38.70
56268;DHT22;42175;46.930;9.532;2022-12-10T05:28:43;23.10;38.60
56268;DHT22;42175;46.930;9.532;2022-12-10T05:31:15;23.10;38.60
56268;DHT22;42175;46.930;9.532;2022-12-10T05:33:41;23.10;38.60
56268;DHT22;42175;46.930;9.532;2022-12-10T05:36:10;23.10;38.60
56268;DHT22;42175;46.930;9.532;2022-12-10T05:38:36;23.10;38.60
56268;DHT22;42175;46.930;9.532;2022-12-10T05:41:19;23.10;38.70
56268;DHT22;42175;46.930;9.532;2022-12-10T05:43:45;23.10;38.60
56268;DHT22;42175;46.930;9.532;2022-12-10T05:46:29;23.10;38.50
56268;DHT22;42175;46.930;9.532;2022-12-10T05:48:56;23.10;38.70
56268;DHT22;42175;46.930;9.532;2022-12-10T05:51:24;23.10;38.70
56268;DHT22;42175;46.930;9.532;2022-12-10T05:53:51;23.10;38.70
56268;DHT22;42175;46.930;9.532;2022-12-10T05:56:19;23.10;38.80
56268;DHT22;42175;46.930;9.532;2022-12-10T05:58:49;23.10;38.70
56268;DHT22;42175;46.930;9.532;2022-12-10T06:01:21;23.10;38.80
56268;DHT22;42175;46.930;9.532;2022-12-10T06:03:47;23.10;38.80
56268;DHT22;42175;46.930;9.532;2022-12-10T06:06:23;23.10;38.70
56268;DHT22;42175;46.930;9.532;2022-12-10T06:08:50;23.10;38.80
56268;DHT22;42175;46.930;9.532;2022-12-10T06:11:16;23.10;38.80
56268;DHT22;42175;46.930;9.532;2022-12-10T06:13:42;23.10;38.70
56268;DHT22;42175;46.930;9.532;2022-12-10T06:16:10;23.10;38.70
56268;DHT22;42175;46.930;9.532;2022-12-10T06:18:36;23.10;38.70
56268;DHT22;42175;46.930;9.532;2022-12-10T06:21:04;23.10;38.60
56268;DHT22;42175;46.930;9.532;2022-12-10T06:23:30;23.10;38.60
56268;DHT22;42175;46.930;9.532;2022-12-10T06:25:55;23.10;38.50
56268;DHT22;42175;46.930;9.532;2022-12-10T06:28:21;23.10;38.50
56268;DHT22;42175;46.930;9.532;2022-12-10T06:30:47;23.10;38.70
56268;DHT22;42175;46.930;9.532;2022-12-10T06:33:12;23.10;38.60
56268;DHT22;42175;46.930;9.532;2022-12-10T06:35:38;23.10;38.60
56268;DHT22;42175;46.930;9.532;2022-12-10T06:38:04;23.10;38.70
56268;DHT22;42175;46.930;9.532;2022-12-10T06:40:29;23.10;39.00
56268;DHT22;42175;46.930;9.532;2022-12-10T06:42:55;23.10;40.90
56268;DHT22;42175;46.930;9.532;2022-12-10T06:45:21;23.10;40.50
56268;DHT22;42175;46.930;9.532;2022-12-10T06:47:46;23.10;40.60
56268;DHT22;42175;46.930;9.532;2022-12-10T06:50:12;23.10;40.30
56268;DHT22;42175;46.930;9.532;2022-12-10T06:52:38;23.10;39.90
56268;DHT22;42175;46.930;9.532;2022-12-10T06:55:04;23.10;39.90
56268;DHT22;42175;46.930;9.532;2022-12-10T06:57:30;23.10;39.80
56268;DHT22;42175;46.930;9.532;2022-12-10T06:59:55;23.10;39.80
56268;DHT22;42175;46.930;9.532;2022-12-10T07:02:21;23.10;39.80
56268;DHT22;42175;46.930;9.532;2022-12-10T07:04:47;23.10;39.90
56268;DHT22;42175;46.930;9.532;2022-12-10T07:07:12;23.20;39.80
56268;DHT22;42175;46.930;9.532;2022-12-10T07:09:38;23.20;40.20
56268;DHT22;42175;46.930;9.532;2022-12-10T07:12:04;23.10;40.00
56268;DHT22;42175;46.930;9.532;2022-12-10T07:14:30;23.20;40.30
56268;DHT22;42175;46.930;9.532;2022-12-10T07:16:55;23.10;40.00
56268;DHT22;42175;46.930;9.532;2022-12-10T07:19:22;23.10;39.60
56268;DHT22;42175;46.930;9.532;2022-12-10T07:21:48;23.20;39.80
56268;DHT22;42175;46.930;9.532;2022-12-10T07:24:16;23.20;39.60
56268;DHT22;42175;46.930;9.532;2022-12-10T07:26:44;23.20;39.80
56268;DHT22;42175;46.930;9.532;2022-12-10T07:29:16;23.20;39.60
56268;DHT22;42175;46.930;9.532;2022-12-10T07:31:43;23.20;39.60
56268;DHT22;42175;46.930;9.532;2022-12-10T07:34:09;23.20;39.60
56268;DHT22;42175;46.930;9.532;2022-12-10T07:36:35;23.20;40.00
56268;DHT22;42175;46.930;9.532;2022-12-10T07:39:04;23.20;39.90
56268;DHT22;42175;46.930;9.532;2022-12-10T07:41:29;23.20;40.10
56268;DHT22;42175;46.930;9.532;2022-12-10T07:43:55;23.20;40.00
56268;DHT22;42175;46.930;9.532;2022-12-10T07:46:24;23.20;40.00
56268;DHT22;42175;46.930;9.532;2022-12-10T07:48:50;23.20;40.00
56268;DHT22;42175;46.930;9.532;2022-12-10T07:51:18;23.20;39.90
56268;DHT22;42175;46.930;9.532;2022-12-10T07:53:44;23.20;40.00
56268;DHT22;42175;46.930;9.532;2022-12-10T07:56:10;23.20;40.00
56268;DHT22;42175;46.930;9.532;2022-12-10T07:58:37;23.20;39.80
56268;DHT22;42175;46.930;9.532;2022-12-10T08:01:11;23.20;39.90
56268;DHT22;42175;46.930;9.532;2022-12-10T08:03:37;23.20;39.80
56268;DHT22;42175;46.930;9.532;2022-12-10T08:06:05;23.20;39.90
56268;DHT22;42175;46.930;9.532;2022-12-10T08:08:34;23.20;39.80
56268;DHT22;42175;46.930;9.532;2022-12-10T08:11:01;23.20;39.90
56268;DHT22;42175;46.930;9.532;2022-12-10T08:13:28;23.20;39.80
56268;DHT22;42175;46.930;9.532;2022-12-10T08:15:54;23.20;39.70
56268;DHT22;42175;46.930;9.532;2022-12-10T08:18:21;23.30;39.70
56268;DHT22;42175;46.930;9.532;2022-12-10T08:20:46;23.20;39.70
56268;DHT22;42175;46.930;9.532;2022-12-10T08:23:12;23.20;39.70
56268;DHT22;42175;46.930;9.532;2022-12-10T08:25:38;23.20;39.60
56268;DHT22;42175;46.930;9.532;2022-12-10T08:28:04;23.20;39.60
56268;DHT22;42175;46.930;9.532;2022-12-10T08:30:30;23.20;39.70
56268;DHT22;42175;46.930;9.532;2022-12-10T08:32:56;23.20;39.60
56268;DHT22;42175;46.930;9.532;2022-12-10T08:35:21;23.20;39.60
56268;DHT22;42175;46.930;9.532;2022-12-10T08:37:47;23.20;39.60
56268;DHT22;42175;46.930;9.532;2022-12-10T08:40:13;23.20;39.60
56268;DHT22;42175;46.930;9.532;2022-12-10T08:42:39;23.20;39.50
56268;DHT22;42175;46.930;9.532;2022-12-10T08:45:05;23.20;39.60
56268;DHT22;42175;46.930;9.532;2022-12-10T08:47:31;23.20;39.50
56268;DHT22;42175;46.930;9.532;2022-12-10T08:49:57;23.20;39.60
56268;DHT22;42175;46.930;9.532;2022-12-10T08:52:22;23.20;39.60
56268;DHT22;42175;46.930;9.532;2022-12-10T08:54:48;23.20;39.50
56268;DHT22;42175;46.930;9.532;2022-12-10T08:57:13;23.20;39.60
56268;DHT22;42175;46.930;9.532;2022-12-10T08:59:39;23.20;39.60
56268;DHT22;42175;46.930;9.532;2022-12-10T09:02:05;23.20;39.50
56268;DHT22;42175;46.930;9.532;2022-12-10T09:04:30;23.30;39.60
56268;DHT22;42175;46.930;9.532;2022-12-10T09:06:56;23.30;39.50
56268;DHT22;42175;46.930;9.532;2022-12-10T09:09:22;23.20;39.40
56268;DHT22;42175;46.930;9.532;2022-12-10T09:11:47;23.30;39.50
56268;DHT22;42175;46.930;9.532;2022-12-10T09:14:13;23.20;39.40
56268;DHT22;42175;46.930;9.532;2022-12-10T09:16:39;23.20;39.40
56268;DHT22;42175;46.930;9.532;2022-12-10T09:19:05;23.20;39.30
56268;DHT22;42175;46.930;9.532;2022-12-10T09:21:32;23.20;39.30
56268;DHT22;42175;46.930;9.532;2022-12-10T09:23:58;23.20;39.40
56268;DHT22;42175;46.930;9.532;2022-12-10T09:26:25;23.30;39.50
56268;DHT22;42175;46.930;9.532;2022-12-10T09:28:51;23.30;39.40
56268;DHT22;42175;46.930;9.532;2022-12-10T09:31:19;23.30;39.40
56268;DHT22;42175;46.930;9.532;2022-12-10T09:33:47;23.30;39.60
56268;DHT22;42175;46.930;9.532;2022-12-10T09:36:14;23.30;39.60
56268;DHT22;42175;46.930;9.532;2022-12-10T09:38:41;23.30;39.80
56268;DHT22;42175;46.930;9.532;2022-12-10T09:46:53;23.40;40.20
56268;DHT22;42175;46.930;9.532;2022-12-10T09:49:55;23.40;40.30
56268;DHT22;42175;46.930;9.532;2022-12-10T09:52:21;23.40;40.40
56268;DHT22;42175;46.930;9.532;2022-12-10T09:54:49;23.40;40.50
56268;DHT22;42175;46.930;9.532;2022-12-10T09:57:31;23.50;40.50
56268;DHT22;42175;46.930;9.532;2022-12-10T10:00:15;23.40;40.60
56268;DHT22;42175;46.930;9.532;2022-12-10T10:02:43;23.50;40.80
56268;DHT22;42175;46.930;9.532;2022-12-10T10:05:20;23.40;40.70
56268;DHT22;42175;46.930;9.532;2022-12-10T10:07:59;23.50;40.80
56268;DHT22;42175;46.930;9.532;2022-12-10T10:10:38;23.50;40.90
56268;DHT22;42175;46.930;9.532;2022-12-10T10:15:35;23.50;41.00
56268;DHT22;42175;46.930;9.532;2022-12-10T10:20:43;23.50;41.10
56268;DHT22;42175;46.930;9.532;2022-12-10T10:23:13;23.50;41.10
56268;DHT22;42175;46.930;9.532;2022-12-10T10:25:39;23.50;41.10
56268;DHT22;42175;46.930;9.532;2022-12-10T10:28:05;23.50;41.00
56268;DHT22;42175;46.930;9.532;2022-12-10T10:30:31;23.50;41.10
56268;DHT22;42175;46.930;9.532;2022-12-10T10:32:57;23.50;41.10
56268;DHT22;42175;46.930;9.532;2022-12-10T10:35:34;23.50;41.20
56268;DHT22;42175;46.930;9.532;2022-12-10T10:38:15;23.50;41.00
56268;DHT22;42175;46.930;9.532;2022-12-10T10:40:44;23.50;41.00
56268;DHT22;42175;46.930;9.532;2022-12-10T10:43:26;23.50;41.00
56268;DHT22;42175;46.930;9.532;2022-12-10T10:46:04;23.60;41.00
56268;DHT22;42175;46.930;9.532;2022-12-10T10:48:35;23.50;40.90
56268;DHT22;42175;46.930;9.532;2022-12-10T10:51:27;23.60;41.10
56268;DHT22;42175;46.930;9.532;2022-12-10T10:53:54;23.60;40.90
56268;DHT22;42175;46.930;9.532;2022-12-10T10:56:26;23.60;41.00
56268;DHT22;42175;46.930;9.532;2022-12-10T11:01:19;23.60;41.00
56268;DHT22;42175;46.930;9.532;2022-12-10T11:03:50;23.60;40.90
56268;DHT22;42175;46.930;9.532;2022-12-10T11:06:18;23.60;40.90
56268;DHT22;42175;46.930;9.532;2022-12-10T11:08:46;23.60;40.90
56268;DHT22;42175;46.930;9.532;2022-12-10T11:11:19;23.60;41.30
56268;DHT22;42175;46.930;9.532;2022-12-10T11:13:46;23.60;40.90
56268;DHT22;42175;46.930;9.532;2022-12-10T11:18:42;23.60;41.00
56268;DHT22;42175;46.930;9.532;2022-12-10T11:21:19;23.60;41.10
56268;DHT22;42175;46.930;9.532;2022-12-10T11:23:49;23.60;41.10
56268;DHT22;42175;46.930;9.532;2022-12-10T11:36:58;23.60;41.20
56268;DHT22;42175;46.930;9.532;2022-12-10T11:45:26;23.70;41.30
56268;DHT22;42175;46.930;9.532;2022-12-10T11:50:44;23.70;41.30
56268;DHT22;42175;46.930;9.532;2022-12-10T11:56:24;23.70;41.40
56268;DHT22;42175;46.930;9.532;2022-12-10T11:59:05;23.70;41.30
56268;DHT22;42175;46.930;9.532;2022-12-10T12:02:20;23.70;41.40
56268;DHT22;42175;46.930;9.532;2022-12-10T12:08:09;23.70;41.20
56268;DHT22;42175;46.930;9.532;2022-12-10T12:13:35;23.70;41.10
56268;DHT22;42175;46.930;9.532;2022-12-10T12:16:14;23.70;41.00
56268;DHT22;42175;46.930;9.532;2022-12-10T12:18:55;23.70;40.90
56268;DHT22;42175;46.930;9.532;2022-12-10T12:21:22;23.70;41.00
56268;DHT22;42175;46.930;9.532;2022-12-10T12:24:09;23.70;41.00
56268;DHT22;42175;46.930;9.532;2022-12-10T12:26:43;23.70;41.00
56268;DHT22;42175;46.930;9.532;2022-12-10T12:32:01;23.70;41.00
56268;DHT22;42175;46.930;9.532;2022-12-10T12:37:13;23.70;41.00
56268;DHT22;42175;46.930;9.532;2022-12-10T12:39:49;23.70;41.00
56268;DHT22;42175;46.930;9.532;2022-12-10T12:42:24;23.70;40.90
56268;DHT22;42175;46.930;9.532;2022-12-10T12:45:16;23.70;40.90
56268;DHT22;42175;46.930;9.532;2022-12-10T12:47:56;23.70;40.90
56268;DHT22;42175;46.930;9.532;2022-12-10T12:50:47;23.70;41.50
56268;DHT22;42175;46.930;9.532;2022-12-10T12:53:16;23.70;40.80
56268;DHT22;42175;46.930;9.532;2022-12-10T12:56:10;23.70;40.90
56268;DHT22;42175;46.930;9.532;2022-12-10T12:58:56;23.70;40.90
56268;DHT22;42175;46.930;9.532;2022-12-10T13:02:06;23.70;40.90
56268;DHT22;42175;46.930;9.532;2022-12-10T13:04:22;23.70;40.90
56268;DHT22;42175;46.930;9.532;2022-12-10T13:09:49;23.70;41.00
56268;DHT22;42175;46.930;9.532;2022-12-10T13:12:18;23.70;40.80
56268;DHT22;42175;46.930;9.532;2022-12-10T13:22:58;23.70;40.80
56268;DHT22;42175;46.930;9.532;2022-12-10T13:25:41;23.70;40.80
56268;DHT22;42175;46.930;9.532;2022-12-10T13:28:49;23.70;40.70
56268;DHT22;42175;46.930;9.532;2022-12-10T13:34:04;23.70;40.80
56268;DHT22;42175;46.930;9.532;2022-12-10T13:36:34;23.70;40.80
56268;DHT22;42175;46.930;9.532;2022-12-10T13:41:34;23.70;40.80
56268;DHT22;42175;46.930;9.532;2022-12-10T13:44:37;23.70;40.80
56268;DHT22;42175;46.930;9.532;2022-12-10T13:47:21;23.70;40.70
56268;DHT22;42175;46.930;9.532;2022-12-10T13:49:54;23.70;40.70
56268;DHT22;42175;46.930;9.532;2022-12-10T13:55:28;23.70;40.70
56268;DHT22;42175;46.930;9.532;2022-12-10T13:58:26;23.70;40.70
56268;DHT22;42175;46.930;9.532;2022-12-10T14:06:25;23.70;40.50
56268;DHT22;42175;46.930;9.532;2022-12-10T14:11:38;23.70;40.60
56268;DHT22;42175;46.930;9.532;2022-12-10T14:14:11;23.80;40.50
56268;DHT22;42175;46.930;9.532;2022-12-10T14:16:40;23.80;40.40
56268;DHT22;42175;46.930;9.532;2022-12-10T14:19:11;23.70;38.10
56268;DHT22;42175;46.930;9.532;2022-12-10T14:21:39;23.70;38.10
56268;DHT22;42175;46.930;9.532;2022-12-10T14:27:26;23.60;38.60
56268;DHT22;42175;46.930;9.532;2022-12-10T14:32:38;23.60;38.40
56268;DHT22;42175;46.930;9.532;2022-12-10T14:35:15;23.60;38.50
56268;DHT22;42175;46.930;9.532;2022-12-10T14:37:46;23.60;38.50
56268;DHT22;42175;46.930;9.532;2022-12-10T14:40:37;23.60;38.50
56268;DHT22;42175;46.930;9.532;2022-12-10T14:43:17;23.60;38.40
56268;DHT22;42175;46.930;9.532;2022-12-10T14:45:51;23.60;38.30
56268;DHT22;42175;46.930;9.532;2022-12-10T14:48:18;23.60;38.30
56268;DHT22;42175;46.930;9.532;2022-12-10T14:50:47;23.60;38.30
56268;DHT22;42175;46.930;9.532;2022-12-10T14:53:19;23.60;38.20
56268;DHT22;42175;46.930;9.532;2022-12-10T14:55:46;23.60;38.10
56268;DHT22;42175;46.930;9.532;2022-12-10T14:58:25;23.60;38.20
56268;DHT22;42175;46.930;9.532;2022-12-10T15:00:53;23.60;38.20
56268;DHT22;42175;46.930;9.532;2022-12-10T15:03:32;23.50;38.10
56268;DHT22;42175;46.930;9.532;2022-12-10T15:06:02;23.60;38.10
56268;DHT22;42175;46.930;9.532;2022-12-10T15:08:29;23.60;38.10
56268;DHT22;42175;46.930;9.532;2022-12-10T15:10:57;23.60;38.00
56268;DHT22;42175;46.930;9.532;2022-12-10T15:13:38;23.60;38.10
56268;DHT22;42175;46.930;9.532;2022-12-10T15:16:06;23.50;38.00
56268;DHT22;42175;46.930;9.532;2022-12-10T15:18:37;23.50;38.00
56268;DHT22;42175;46.930;9.532;2022-12-10T15:21:15;23.60;38.10
56268;DHT22;42175;46.930;9.532;2022-12-10T15:23:44;23.50;38.00
56268;DHT22;42175;46.930;9.532;2022-12-10T15:26:27;23.50;38.10
56268;DHT22;42175;46.930;9.532;2022-12-10T15:31:50;23.50;38.40
56268;DHT22;42175;46.930;9.532;2022-12-10T15:34:20;23.60;38.50
56268;DHT22;42175;46.930;9.532;2022-12-10T15:36:54;23.60;38.40
56268;DHT22;42175;46.930;9.532;2022-12-10T15:39:59;23.60;38.60
56268;DHT22;42175;46.930;9.532;2022-12-10T15:42:40;23.60;38.60
56268;DHT22;42175;46.930;9.532;2022-12-10T15:45:23;23.50;38.50
56268;DHT22;42175;46.930;9.532;2022-12-10T15:47:51;23.60;38.60
56268;DHT22;42175;46.930;9.532;2022-12-10T15:50:17;23.50;38.60
56268;DHT22;42175;46.930;9.532;2022-12-10T15:52:43;23.60;38.60
56268;DHT22;42175;46.930;9.532;2022-12-10T15:55:11;23.50;38.50
56268;DHT22;42175;46.930;9.532;2022-12-10T15:57:39;23.50;38.60
56268;DHT22;42175;46.930;9.532;2022-12-10T16:00:21;23.60;38.70
56268;DHT22;42175;46.930;9.532;2022-12-10T16:05:22;23.50;38.70
56268;DHT22;42175;46.930;9.532;2022-12-10T16:07:50;23.60;38.60
56268;DHT22;42175;46.930;9.532;2022-12-10T16:10:19;23.50;38.90
56268;DHT22;42175;46.930;9.532;2022-12-10T16:12:47;23.60;38.90
56268;DHT22;42175;46.930;9.532;2022-12-10T16:15:24;23.60;38.80
56268;DHT22;42175;46.930;9.532;2022-12-10T16:17:51;23.50;38.70
56268;DHT22;42175;46.930;9.532;2022-12-10T16:20:28;23.60;38.80
56268;DHT22;42175;46.930;9.532;2022-12-10T16:22:55;23.60;38.80
56268;DHT22;42175;46.930;9.532;2022-12-10T16:25:23;23.60;38.80
56268;DHT22;42175;46.930;9.532;2022-12-10T16:27:49;23.60;38.80
56268;DHT22;42175;46.930;9.532;2022-12-10T16:32:47;23.60;38.80
56268;DHT22;42175;46.930;9.532;2022-12-10T16:35:13;23.60;38.90
56268;DHT22;42175;46.930;9.532;2022-12-10T16:37:46;23.60;38.90
56268;DHT22;42175;46.930;9.532;2022-12-10T16:40:13;23.60;38.80
56268;DHT22;42175;46.930;9.532;2022-12-10T16:42:40;23.60;38.70
56268;DHT22;42175;46.930;9.532;2022-12-10T16:45:19;23.60;37.90
56268;DHT22;42175;46.930;9.532;2022-12-10T16:47:45;23.60;37.40
56268;DHT22;42175;46.930;9.532;2022-12-10T16:50:13;23.50;37.30
56268;DHT22;42175;46.930;9.532;2022-12-10T16:52:44;23.50;37.10
56268;DHT22;42175;46.930;9.532;2022-12-10T16:55:24;23.50;36.80
56268;DHT22;42175;46.930;9.532;2022-12-10T16:57:51;23.40;36.70
56268;DHT22;42175;46.930;9.532;2022-12-10T17:00:26;23.50;37.20
56268;DHT22;42175;46.930;9.532;2022-12-10T17:03:04;23.50;37.60
56268;DHT22;42175;46.930;9.532;2022-12-10T17:05:53;23.50;38.00
56268;DHT22;42175;46.930;9.532;2022-12-10T17:08:23;23.50;38.20
56268;DHT22;42175;46.930;9.532;2022-12-10T17:10:51;23.50;38.30
56268;DHT22;42175;46.930;9.532;2022-12-10T17:13:43;23.60;38.50
56268;DHT22;42175;46.930;9.532;2022-12-10T17:16:28;23.60;38.70
56268;DHT22;42175;46.930;9.532;2022-12-10T17:18:58;23.60;38.80
56268;DHT22;42175;46.930;9.532;2022-12-10T17:21:27;23.60;38.80
56268;DHT22;42175;46.930;9.532;2022-12-10T17:23:56;23.60;38.80
56268;DHT22;42175;46.930;9.532;2022-12-10T17:26:33;23.60;38.90
56268;DHT22;42175;46.930;9.532;2022-12-10T17:29:05;23.60;38.90
56268;DHT22;42175;46.930;9.532;2022-12-10T17:31:33;23.60;39.00
56268;DHT22;42175;46.930;9.532;2022-12-10T17:33:59;23.60;38.90
56268;DHT22;42175;46.930;9.532;2022-12-10T17:36:25;23.60;39.10
56268;DHT22;42175;46.930;9.532;2022-12-10T17:38:51;23.60;39.00
56268;DHT22;42175;46.930;9.532;2022-12-10T17:41:26;23.60;39.00